Portada
METAR-TAF:

METAR-TAF

Aeropuertos :

Passo Rolle, Italia

latitud: 46-18N, longitud: 011-47E, altitud: 2004 m

Observación

El informe se hizo hace 43 minutos, a las 14:55 UTC
Viento 6 kt del este-sureste
Temperatura -2°C
Humedad 74%
Presión 1008 hPa
Visibilidad 10 km o más
Escasas nubes a una altura de 1000 ft

METAR: LIVR 011455Z 12006KT 9999 FEW010 M02/M06 Q1008 RMK FEW MON LIB VIS MIN 9999

Hora: 17:38 (15:38 UTC)


TAF: falta

Observaciones y pronósticos meteorológicos de más de 4000 aeropuertos (mensajes METAR y TAF).

Los puntos amarillos y rojos representan las estaciones disponibles.

Ponga el ratón en el punto deseado para ver el nombre de la estación.

Haga clic para ver las observaciones y los pronósticos meteorológicos.

Para cambiar el mapa : haga clic en los botones verdes con una cruz de color negro para hacer un zoom, en el botón verde con un guión para alejar o en las flechas verdes para mapas adyacentes.


METAR-TAF: